Terminal Aerodrome Forecast
Issued by NWS

Current Version | Previous Version | Text Only | Print | Product List | Glossary On
Versions: 1 2 3 4 5 6 7 8 9 10 11 12 13 14 15 16 17 18 19
000
FTUS43 KAPX 052338
TAFMBL
TAF
KMBL 052338Z 0600/0624 17004KT P6SM OVC020
     FM060500 15007KT 5SM BR OVC015
     FM061300 16008KT P6SM OVC015
     FM061600 16011KT P6SM BKN050
     FM061900 21009KT P6SM BKN025
     FM062200 23010KT P6SM BKN015=

USA.gov is the U.S. government's official web portal to all federal, state and local government web resources and services.